Date,TemperatureHighF,TemperatureAvgF,TemperatureLowF,DewpointHighF,DewpointAvgF,DewpointLowF,HumidityHigh,HumidityAvg,HumidityLow,PressureMaxIn,PressureMinIn,WindSpeedMaxMPH,WindSpeedAvgMPH,GustSpeedMaxMPH,PrecipitationSumIn
2013-1-1,83.8,64.0,50.4,59.5,50.5,45.3,96,65,33,30.16,29.98,5,0,7,0.00
2013-1-2,87.3,67.5,57.0,65.9,57.7,50.8,96,73,40,30.01,29.93,5,0,6,0.00
2013-1-3,73.2,62.3,54.9,65.7,58.3,53.5,96,87,67,30.11,29.96,2,0,2,0.28
2013-1-4,56.3,53.3,50.4,55.2,52.2,49.3,96,96,96,30.22,30.09,0,0,2,0.08
2013-1-5,81.0,62.6,51.3,57.4,53.6,49.5,96,75,43,30.24,30.12,1,0,4,0.00
2013-1-6,86.2,65.6,56.9,65.8,58.4,53.3,96,79,47,30.14,30.00,1,0,3,0.04
2013-1-7,64.6,59.8,56.3,59.3,55.3,51.4,96,85,69,30.15,30.04,0,0,0,0.02
2013-1-8,89.6,68.7,54.0,68.8,58.8,52.8,96,75,38,30.16,30.05,3,0,3,0.00
2013-1-9,92.1,73.9,63.5,71.3,61.8,57.6,96,70,35,30.22,30.10,0,0,5,0.00
2013-1-10,69.2,67.8,66.6,63.9,63.0,61.9,90,85,79,30.22,30.20,0,0,0,0.00
2013-1-16,73.9,67.2,61.3,56.5,55.0,53.6,76,66,49,29.98,29.96,0,0,0,0.00
2013-1-17,67.1,59.4,54.0,65.9,52.9,40.8,96,80,61,30.10,29.93,6,1,8,0.10
2013-1-18,71.2,55.5,41.4,48.9,41.8,31.6,71,61,38,30.26,30.10,6,1,7,0.00
2013-1-19,83.1,64.9,54.5,54.6,49.7,43.1,74,59,35,30.22,30.06,7,0,7,0.00
2013-1-20,84.6,67.3,58.8,59.9,54.2,51.4,82,64,37,30.12,29.97,3,0,5,0.00
2013-1-21,79.0,65.4,57.6,60.8,52.6,46.0,84,65,42,30.05,29.96,6,0,8,0.00
2013-1-22,72.0,59.8,50.7,47.8,35.7,22.2,70,44,19,30.23,30.02,3,0,6,0.00
2013-1-23,78.8,58.5,45.9,36.7,33.0,24.3,64,42,19,30.32,30.21,3,0,5,0.00
2013-1-24,83.7,58.1,42.6,52.7,40.6,35.1,83,57,21,30.29,30.19,6,0,6,0.00
2013-1-25,84.4,59.8,44.8,58.4,42.1,36.8,89,58,20,30.27,30.13,2,0,3,0.00
2013-1-26,85.1,61.9,46.0,59.8,46.9,40.5,89,62,29,30.23,30.12,3,0,5,0.00
2013-1-27,87.6,65.2,47.8,60.8,47.7,43.2,92,59,24,30.25,30.14,5,0,5,0.00
2013-1-29,70.2,70.2,70.2,60.7,60.5,59.9,72,72,70,30.04,30.03,0,0,2,0.00
2013-1-30,86.2,72.5,62.1,63.3,59.7,57.0,89,67,38,30.03,29.85,15,2,15,0.02
2013-1-31,71.2,58.3,45.3,62.3,39.7,23.6,88,55,19,30.19,29.86,7,1,10,0.12
2013-2-1,79.5,57.4,45.5,37.2,30.9,19.4,67,41,19,30.31,30.17,6,0,6,0.00
2013-2-2,81.3,59.2,46.2,41.7,36.1,32.3,67,46,19,30.26,30.10,5,0,5,0.00
2013-2-3,81.5,56.5,40.1,52.9,40.6,33.5,82,59,26,30.15,30.03,6,0,6,0.00
2013-2-4,82.6,56.3,39.9,53.7,36.6,28.6,87,55,19,30.10,29.98,8,0,8,0.00
2013-2-5,87.3,61.3,43.2,50.1,40.9,35.9,81,53,19,30.05,29.94,5,0,7,0.00
2013-2-6,87.3,69.1,57.6,54.9,51.5,46.4,78,57,28,30.05,29.96,3,0,5,0.00
2013-2-7,110.8,69.6,59.4,77.7,57.3,50.5,86,68,29,30.00,29.79,9,1,12,0.06
2013-2-8,87.6,67.5,55.6,63.1,56.1,48.8,90,71,31,30.03,29.84,6,0,6,0.00
2013-2-9,87.1,65.3,53.2,56.0,48.4,42.2,87,60,23,30.14,30.02,1,0,4,0.00
2013-2-10,89.6,70.5,59.4,58.4,53.0,49.1,78,58,29,30.19,30.07,5,0,6,0.00
2013-2-11,89.8,74.7,60.4,62.1,58.6,55.1,85,61,33,30.14,30.02,7,1,8,0.00
2013-2-12,87.0,70.7,58.8,68.4,61.9,55.3,96,76,44,30.04,29.89,9,1,14,0.00
2013-2-13,87.4,70.2,59.5,68.2,63.2,52.5,96,80,47,29.95,29.79,10,1,10,0.08
2013-2-14,61.5,58.4,54.5,57.4,54.9,52.8,96,88,79,29.99,29.86,1,0,2,0.38
2013-2-15,71.2,57.5,51.2,58.6,50.9,46.4,96,81,50,30.03,29.90,3,0,5,0.00
2013-2-16,75.4,57.6,48.4,54.4,42.4,29.4,88,60,32,30.08,29.89,10,2,11,0.00
2013-2-17,65.7,49.4,37.0,30.9,18.5,5.1,56,31,19,30.30,30.08,7,1,7,0.00
2013-2-18,77.7,54.3,34.5,43.1,30.8,22.5,69,45,19,30.31,30.14,6,0,6,0.00
2013-2-19,84.7,65.5,50.4,55.3,49.0,40.9,82,58,29,30.16,30.03,6,1,8,0.00
2013-2-20,86.3,66.0,57.6,61.6,54.5,48.0,88,69,38,30.07,29.95,10,0,58,0.00
2013-2-21,91.1,69.3,55.0,62.6,54.8,48.2,89,64,31,30.05,29.92,6,0,6,0.00
2013-2-22,92.1,71.5,57.2,66.0,59.0,52.6,96,68,34,30.01,29.93,6,1,9,0.00
2013-2-23,87.2,71.0,65.3,67.2,64.5,61.0,96,81,48,29.94,29.86,7,1,11,0.00
2013-2-24,69.3,68.5,65.5,61.8,59.1,51.4,85,73,53,29.88,29.84,3,2,0,0.00
2013-2-25,88.5,73.1,63.3,68.8,63.4,60.8,96,74,40,29.85,29.71,7,1,7,0.00
2013-2-26,75.4,69.2,61.5,67.9,62.7,55.6,96,80,61,29.84,29.64,10,1,12,0.33
2013-2-27,82.6,64.4,54.7,59.9,51.5,45.5,96,66,34,29.93,29.82,0,0,0,0.00
2013-2-28,83.3,63.9,50.7,57.9,46.2,41.7,90,57,27,29.96,29.86,6,0,7,0.00
2013-3-1,72.3,58.3,50.9,44.0,38.6,31.6,72,50,30,29.98,29.86,6,1,6,0.00
2013-3-2,65.5,55.5,46.9,41.4,33.9,30.7,61,45,32,30.03,29.93,7,1,7,0.00
2013-3-3,58.5,49.9,42.8,33.9,29.4,23.9,53,45,34,30.11,29.94,6,0,8,0.00
2013-3-4,77.2,55.1,38.1,33.7,29.7,24.4,62,41,19,30.19,30.07,2,0,4,0.00
2013-3-5,83.5,60.6,39.2,57.2,43.2,30.7,82,57,27,30.12,29.98,5,0,6,0.00
2013-3-6,72.3,61.1,51.8,58.1,40.1,29.3,83,50,22,30.09,29.91,7,1,8,0.00
2013-3-7,76.5,56.0,43.3,34.9,31.2,23.5,65,42,19,30.19,30.08,6,0,7,0.00
2013-3-8,86.4,59.7,40.5,49.0,36.4,27.9,84,49,19,30.19,30.07,2,0,3,0.00
2013-3-9,82.6,63.2,46.4,50.3,39.9,32.4,80,47,19,30.17,30.07,1,0,3,0.00
2013-3-10,90.3,69.6,55.8,53.8,47.2,44.0,74,49,21,30.10,29.98,2,0,6,0.00
2013-3-11,83.8,69.1,56.7,57.2,51.3,46.4,80,56,29,30.04,29.83,6,0,7,0.00
2013-3-12,70.5,63.7,54.5,64.0,54.9,45.6,96,74,52,30.00,29.80,6,0,6,0.30
2013-3-13,83.1,63.1,52.0,46.9,38.6,24.3,77,47,19,30.14,29.99,7,0,7,0.00
2013-3-14,77.7,59.9,50.4,42.7,31.7,20.9,66,38,19,30.23,30.12,5,0,6,0.00
2013-3-15,83.3,59.3,40.5,47.4,34.2,24.5,79,44,19,30.25,30.11,7,0,7,0.00
2013-3-16,87.3,62.0,43.7,52.3,39.6,32.2,82,50,19,30.14,30.02,5,0,5,0.00
2013-3-17,82.9,64.5,50.4,56.0,48.9,41.8,84,59,32,30.08,29.94,2,0,5,0.00
2013-3-18,74.1,66.8,57.4,61.9,56.9,50.2,84,71,61,29.97,29.81,18,0,58,0.00
2013-3-19,95.2,72.3,58.1,67.5,56.5,52.1,96,63,24,29.96,29.84,2,0,2,0.00
2013-3-20,76.6,65.4,56.1,62.4,56.4,51.8,88,74,49,29.92,29.75,2,0,3,0.14
2013-3-21,80.8,60.2,46.6,53.2,39.3,23.4,91,55,19,29.95,29.83,5,0,6,0.00
2013-3-22,82.4,61.8,43.7,60.2,45.9,33.3,83,59,27,29.95,29.83,1,0,3,0.08
2013-3-23,86.9,70.6,61.5,68.7,63.1,58.4,96,79,51,29.91,29.74,6,0,6,0.00
2013-3-24,82.4,71.5,64.8,68.8,65.7,61.0,96,83,60,29.73,29.59,7,0,7,0.00
2013-3-25,76.6,64.2,52.0,60.9,42.3,25.8,88,50,19,30.01,29.69,5,0,6,0.00
2013-3-26,67.6,56.3,46.1,39.9,30.3,22.3,58,39,19,30.21,29.99,8,1,8,0.00
2013-3-27,71.6,53.3,42.4,32.0,27.7,23.4,59,40,19,30.29,30.17,6,0,6,0.00
2013-3-28,83.7,58.1,41.4,42.0,32.1,18.1,75,44,19,30.26,30.14,3,0,5,0.00
2013-3-29,86.9,62.5,43.5,48.8,36.4,29.9,79,44,19,30.28,30.14,2,0,6,0.00
2013-3-30,86.7,64.4,47.8,54.1,41.2,36.3,80,48,19,30.20,30.08,3,0,5,0.00
2013-3-31,88.5,68.7,54.1,57.8,49.5,43.8,79,54,24,30.11,29.95,5,0,6,0.02
2013-4-1,91.5,75.3,65.7,62.7,58.4,55.3,81,58,33,29.98,29.91,3,0,5,0.00
2013-4-2,95.0,73.0,58.5,63.5,54.9,49.5,89,58,26,30.04,29.94,2,0,3,0.00
2013-4-3,93.2,72.9,61.3,65.1,57.7,51.9,88,62,29,30.02,29.88,5,0,6,0.08
2013-4-4,69.3,66.3,62.4,66.3,62.8,59.4,96,89,76,29.99,29.80,2,0,4,0.43
2013-4-5,80.1,65.5,59.0,62.9,56.7,50.1,96,77,39,29.94,29.75,6,0,7,0.02
2013-4-6,88.5,69.0,55.0,52.8,50.3,33.7,77,55,25,30.05,29.94,2,0,5,0.00
2013-4-7,93.6,73.1,58.1,61.9,52.7,46.6,85,54,21,30.09,29.99,3,0,5,0.00
2013-4-8,95.9,76.7,63.0,60.2,53.0,41.3,76,49,19,30.07,29.97,2,0,3,0.00
2013-4-9,95.2,75.1,62.2,63.9,56.1,51.8,84,55,26,30.09,29.99,3,0,7,0.00
2013-4-10,87.8,78.6,73.2,58.7,57.3,55.8,60,49,34,30.05,29.90,0,0,0,0.00
2013-4-11,95.9,79.0,69.8,68.6,63.9,58.2,87,63,32,29.93,29.74,6,0,6,0.06
2013-4-12,78.3,74.1,69.8,69.3,66.8,63.2,86,78,71,29.86,29.73,7,1,7,0.06
2013-4-13,74.3,68.9,64.6,65.4,61.0,55.5,96,77,52,29.91,29.82,0,0,2,0.00
2013-4-14,71.8,70.4,69.4,65.3,60.8,53.1,80,72,56,29.91,29.84,1,0,2,0.00
2013-4-21,78.6,72.6,68.9,63.0,61.8,59.4,77,69,52,30.03,29.97,0,0,3,0.02
2013-4-22,94.6,74.8,64.6,66.9,61.6,57.1,92,67,32,30.02,29.91,0,0,0,0.02
2013-4-23,95.9,77.2,65.3,61.7,56.5,51.0,78,53,25,30.05,29.94,1,0,6,0.00
2013-4-24,98.3,76.5,61.9,60.4,54.4,46.4,80,51,19,30.08,30.00,5,0,7,0.00
2013-4-25,92.8,76.8,62.2,62.6,58.0,54.9,82,56,32,30.14,30.04,5,0,5,0.00
2013-4-26,75.2,74.8,73.2,59.4,59.1,58.5,61,58,58,30.16,30.15,0,0,0,0.00
2013-4-27,97.3,84.4,73.0,64.9,58.0,50.6,68,43,22,30.16,30.01,6,0,6,0.00
2013-4-28,97.0,79.4,68.2,61.4,57.3,40.7,72,50,15,30.06,29.90,2,0,6,0.00
2013-4-29,88.9,77.8,68.7,63.0,59.7,56.7,70,55,35,29.96,29.84,56,0,58,0.02
2013-4-30,95.4,76.9,65.3,70.4,63.0,56.4,96,66,30,29.94,29.83,0,0,0,2.49
2013-5-1,72.9,68.4,61.5,68.0,64.0,60.4,96,86,73,29.94,29.85,0,0,0,0.73
2013-5-2,79.5,66.8,60.3,69.8,63.7,59.1,96,90,65,29.91,29.75,0,0,0,0.49
2013-5-3,87.4,71.7,61.2,69.3,60.2,20.2,96,72,19,29.77,29.66,0,0,0,0.12
2013-5-4,85.6,72.8,64.2,65.8,61.4,58.8,89,69,46,29.76,29.62,0,0,0,0.00
2013-5-5,89.4,72.8,60.4,61.9,50.1,39.2,86,51,19,29.88,29.74,0,0,0,0.00
2013-5-7,73.6,68.4,64.8,53.5,51.9,50.4,66,56,45,30.00,29.95,0,0,0,0.00
2013-5-8,94.1,73.4,56.7,62.7,53.0,49.4,87,54,23,30.08,29.98,0,0,0,0.00
2013-5-9,97.5,75.6,57.9,66.3,54.5,45.5,90,54,19,30.10,30.02,0,0,0,0.00
2013-5-10,101.3,79.3,61.7,68.7,58.8,52.4,89,55,20,30.08,29.93,0,0,0,0.00
2013-5-11,99.7,80.8,70.5,70.8,63.8,57.5,87,60,27,29.99,29.93,0,0,0,0.00
2013-5-12,98.3,80.2,68.4,72.4,62.5,57.6,91,59,30,29.99,29.88,0,0,0,0.00
2013-5-13,97.7,76.5,63.5,65.6,52.7,33.5,85,51,19,30.08,29.95,0,0,0,0.00
2013-5-14,97.3,76.1,58.5,51.1,44.1,36.3,59,36,19,30.16,30.05,0,0,0,0.00
2013-5-15,100.8,77.8,60.4,61.3,51.2,44.1,78,45,19,30.15,30.00,0,0,0,0.00
2013-5-16,99.4,80.8,65.5,59.6,54.4,44.4,75,46,19,30.07,29.93,0,0,0,0.00
2013-5-17,101.1,80.5,67.5,63.6,57.8,53.1,75,49,21,30.03,29.96,0,0,0,0.00
2013-5-18,101.3,82.1,68.9,69.7,59.3,47.9,84,51,19,30.05,29.95,0,0,0,0.00
2013-5-19,104.3,89.2,71.8,65.6,56.9,52.4,69,37,19,30.03,29.91,0,0,0,0.00
2013-5-20,104.9,83.1,71.8,67.3,61.3,55.6,74,52,21,30.01,29.90,0,0,0,0.00
2013-5-21,104.0,79.0,68.2,68.6,63.1,54.7,88,64,22,29.97,29.86,0,0,0,0.59
2013-5-22,98.1,79.3,67.5,71.2,64.2,58.9,90,64,31,29.91,29.82,0,0,0,0.00
2013-5-23,102.4,80.9,66.9,73.6,64.1,60.6,96,61,28,29.95,29.85,0,0,0,0.00
2013-5-24,97.5,71.0,67.1,74.5,65.1,53.5,96,82,23,29.99,29.92,0,0,0,0.00
2013-10-11,95.9,78.1,64.0,67.9,59.8,55.2,90,57,30,29.99,29.88,0,0,3,0.00
2013-10-12,96.3,76.2,63.5,68.0,57.6,50.8,89,58,25,29.99,29.91,5,0,5,0.00
2013-10-13,94.6,75.5,61.5,68.8,57.3,52.5,90,57,26,30.02,29.92,0,0,0,0.00
2013-10-14,84.6,75.8,70.7,59.9,58.3,57.0,62,55,41,29.98,29.88,0,0,0,0.00
2013-10-15,92.3,80.0,68.7,68.0,63.2,59.6,83,59,38,29.94,29.83,0,0,0,0.00
2013-10-16,90.0,76.3,65.3,68.6,64.8,60.7,92,70,42,29.91,29.85,0,0,0,0.00
2013-10-17,74.8,73.0,71.1,64.4,63.6,62.7,78,73,66,29.88,29.86,0,0,0,0.00
2013-10-18,99.3,78.3,66.6,73.8,65.3,47.2,96,69,32,29.92,29.83,0,0,0,0.00
2013-10-19,93.9,78.2,68.5,73.6,67.2,63.6,96,72,40,29.89,29.81,5,0,5,0.00
2013-10-20,95.2,78.2,69.6,75.5,67.3,62.5,96,72,41,29.90,29.81,0,0,0,0.00
2013-10-21,98.4,81.2,69.4,74.2,66.3,60.9,96,64,31,29.94,29.85,0,0,0,0.00
2013-10-22,93.9,80.5,68.7,73.4,67.5,64.9,96,67,42,29.86,29.77,6,0,6,0.24
2013-10-23,88.3,72.9,67.1,67.7,59.3,45.5,96,67,29,29.95,29.75,7,0,7,0.00
2013-10-24,76.5,67.7,61.0,53.0,45.6,40.4,63,45,36,30.11,29.95,5,0,5,0.00
2013-10-25,90.9,69.3,55.6,60.1,49.2,41.3,85,54,19,30.19,30.08,5,0,5,0.00
2013-10-26,90.0,70.2,59.7,56.1,50.4,40.5,73,53,19,30.15,30.03,4,0,4,0.00
2013-10-27,88.2,67.8,55.9,60.2,51.2,45.7,84,59,26,30.07,29.99,0,0,0,0.00
2013-10-28,92.7,69.9,54.9,62.8,51.3,32.3,89,57,12,30.13,30.03,0,0,0,0.00
2013-10-29,93.4,75.0,62.6,63.7,57.1,52.0,84,58,28,30.17,30.05,4,0,4,0.00
2013-10-30,95.4,76.9,65.7,66.0,59.6,56.0,82,58,29,30.17,30.02,0,0,0,0.00
2013-10-31,95.9,75.6,63.7,66.8,60.4,54.5,90,63,27,30.07,29.91,0,0,2,0.00
2013-11-1,91.0,76.6,68.2,69.2,65.6,62.8,91,71,42,29.94,29.82,7,0,7,0.00
2013-11-2,74.3,67.8,59.2,68.9,63.5,56.2,96,86,73,29.93,29.75,6,0,6,0.69
2013-11-3,84.6,64.7,52.7,56.4,49.4,40.1,96,64,24,30.06,29.91,5,0,5,0.00
2013-11-4,86.4,69.4,59.0,58.2,52.6,45.0,72,57,33,30.09,30.02,7,0,7,0.00
2013-11-5,87.4,73.7,63.9,65.0,60.4,57.5,84,65,42,30.09,29.98,8,0,8,0.00
2013-11-6,92.7,77.4,69.8,64.7,60.5,55.0,76,59,31,30.04,29.94,5,0,5,0.00
2013-11-7,86.9,72.8,65.5,65.6,61.1,58.3,85,68,42,30.00,29.91,2,0,2,0.00
2013-11-8,86.7,71.8,64.8,62.6,57.8,42.6,86,64,36,30.06,29.93,6,0,6,0.00
2013-11-9,89.8,74.1,64.4,63.5,57.8,54.3,74,58,37,30.10,30.01,4,0,4,0.00
2013-11-10,89.4,73.1,65.3,63.7,59.4,56.3,76,63,38,30.11,30.00,4,0,4,0.00
2013-11-11,87.4,72.4,63.5,64.3,59.8,56.9,83,67,41,30.10,30.00,4,0,4,0.00
2013-11-12,79.0,68.9,61.3,65.6,60.1,52.2,91,74,57,30.06,29.95,5,0,5,0.00
2013-11-13,70.5,62.3,-22.0,52.4,45.2,-32.4,66,54,42,30.25,30.01,12,0,12,0.00
2013-11-14,83.7,64.5,52.0,54.5,48.6,43.0,78,59,32,30.23,30.09,5,0,5,0.00
2013-11-15,72.5,67.0,62.2,60.5,56.8,34.6,82,70,33,30.12,29.99,2,0,2,0.02
2013-11-16,75.0,68.6,64.0,67.0,63.1,59.4,96,83,71,30.06,29.96,4,0,4,0.02
2013-11-17,89.1,73.4,65.8,68.0,62.9,60.1,88,71,42,30.02,29.92,1,0,1,0.00
2013-11-18,90.0,73.5,63.9,69.9,63.6,60.9,96,74,43,29.96,29.87,3,0,3,0.00
2013-11-19,85.6,73.0,66.9,68.4,63.6,56.0,90,74,50,29.92,29.81,2,0,2,0.00
2013-11-20,87.1,70.9,63.3,68.4,61.8,56.6,85,74,50,30.03,29.91,6,0,6,0.00
2013-11-21,89.8,74.8,68.2,67.8,64.2,61.9,89,71,42,30.12,30.00,4,0,4,0.00
2013-11-22,87.6,74.9,68.4,68.0,63.0,58.5,86,68,43,30.12,30.01,5,0,4,0.00
2013-11-23,89.1,72.0,61.9,65.2,58.9,56.0,88,66,35,30.05,29.95,4,0,4,0.00
2013-11-24,71.1,65.2,58.6,60.9,54.7,40.8,85,70,40,30.16,29.97,6,0,6,0.00
2013-11-25,79.2,67.5,58.6,58.0,52.5,46.9,70,59,41,30.16,29.98,6,0,6,0.00
2013-11-26,83.7,71.4,65.7,68.4,64.4,57.7,96,79,54,29.98,29.70,8,2,8,0.24
2013-11-27,70.5,62.0,47.3,66.4,52.3,36.5,96,72,53,30.16,29.68,15,1,15,0.12
2013-11-28,72.1,52.3,37.9,45.5,37.2,28.9,75,59,29,30.30,30.16,4,0,4,0.02
2013-11-29,76.8,60.8,50.9,53.9,47.8,43.2,83,64,36,30.30,30.19,3,0,3,0.00
2013-11-30,81.1,64.6,53.8,58.8,52.3,44.9,86,66,43,30.26,30.10,4,0,4,0.00
2013-12-1,82.9,64.4,56.8,63.1,54.9,50.9,87,73,44,30.13,29.93,5,0,5,0.00
2013-12-2,72.0,62.1,55.4,60.6,53.4,49.6,96,75,49,29.93,29.78,4,0,4,0.00
2013-12-3,86.9,68.0,54.5,61.8,56.0,49.3,89,68,36,29.92,29.82,2,0,2,0.00
2013-12-4,90.3,70.8,60.1,69.9,60.1,56.2,96,72,36,30.01,29.90,0,0,0,0.00
2013-12-5,88.9,70.6,59.9,67.9,59.5,56.3,96,71,35,30.11,30.00,4,0,4,0.00
2013-12-6,90.9,72.0,61.0,71.8,61.7,57.7,96,73,39,30.11,30.01,7,0,7,0.06
2013-12-7,91.8,71.7,61.2,69.8,59.7,55.0,96,69,32,30.17,30.06,0,0,0,0.00
2013-12-8,91.2,72.0,61.5,70.5,60.1,56.7,96,69,37,30.16,30.02,5,0,5,0.00
2013-12-9,88.3,72.0,62.2,69.1,61.3,58.0,92,71,41,30.12,30.01,9,0,9,0.00
2013-12-10,89.8,72.0,59.5,69.7,61.5,55.7,96,72,40,30.10,30.02,6,0,6,0.00
2013-12-11,90.0,72.0,62.1,63.9,58.5,54.6,81,65,35,30.19,30.08,0,0,0,0.00
2013-12-12,79.9,65.1,55.8,58.4,47.2,28.1,85,57,25,30.25,30.13,5,0,5,0.00
2013-12-13,82.0,63.7,51.8,51.8,44.2,32.7,71,51,26,30.23,30.03,7,0,7,0.00
2013-12-14,87.6,77.4,65.7,66.0,63.6,50.9,82,64,43,30.07,29.88,8,2,8,0.00
2013-12-15,74.5,67.7,58.5,68.1,58.8,49.8,92,74,53,30.07,29.83,7,0,7,0.02
2013-12-16,74.8,58.4,50.7,49.8,42.7,37.1,74,58,27,30.17,30.05,5,0,5,0.00
2013-12-17,79.7,58.3,46.9,46.7,40.5,37.3,72,54,27,30.20,30.09,0,0,0,0.00
2013-12-18,79.9,57.8,43.9,49.9,39.9,31.9,85,56,19,30.24,30.14,0,0,0,0.00
2013-12-19,84.6,61.1,46.0,53.9,44.5,38.2,79,58,26,30.22,30.09,0,0,0,0.00
2013-12-20,91.8,70.5,56.5,62.1,55.1,49.0,82,61,33,30.13,30.02,0,0,0,0.00
2013-12-21,76.1,68.6,62.8,61.7,59.4,57.2,82,73,59,30.06,29.98,0,0,0,0.00
2013-12-22,89.1,73.6,64.6,69.3,62.5,59.8,92,70,42,30.06,29.99,6,0,6,0.00
2013-12-23,87.6,72.6,63.5,72.0,64.3,58.6,96,77,49,30.10,30.02,8,0,8,0.00
2013-12-24,76.8,64.1,53.2,67.5,46.3,27.8,88,57,24,30.21,30.05,7,1,7,0.00
2013-12-25,81.9,62.3,48.7,52.0,43.5,31.1,64,51,33,30.20,30.05,4,0,4,0.00
2013-12-26,83.8,67.7,58.6,57.6,53.3,49.6,78,61,37,30.15,30.02,4,0,4,0.00
2013-12-27,71.1,64.7,60.3,62.5,56.6,51.9,83,75,67,30.19,30.07,2,0,2,0.02
2013-12-28,79.0,69.0,62.4,65.1,61.6,57.7,96,78,59,30.15,29.92,6,0,6,0.00
2013-12-29,73.4,66.5,57.6,68.7,63.3,56.2,96,90,79,29.96,29.82,10,0,10,1.59
2013-12-30,67.8,58.9,55.8,61.1,55.8,52.8,96,90,71,30.14,29.94,0,0,0,0.00
2013-12-31,68.4,61.6,55.9,53.3,50.2,46.9,88,68,50,30.24,30.10,0,0,0,0.00
2014-1-1,62.1,59.0,57.4,58.0,53.5,46.0,96,83,57,30.19,29.99,0,0,0,0.16
2014-1-2,80.1,64.9,56.5,70.0,61.2,24.3,96,89,19,29.99,29.78,7,0,7,0.49